Time;durP1;ratioP1;P1;durP2;ratioP2;P2;SDS_P1;SDS_P2;PMS_P1;PMS_P2;Temp;Humidity;BMP_temperature;BMP_pressure;BME280_temperature;BME280_humidity;BME280_pressure;Samples;Min_cycle;Max_cycle;Signal;HPM_P1;HPM_P2
2024/02/11 00:03:27;;;;;;;1.50;1.20;;;;;;;;;;10461481;28;20045;-75
2024/02/11 00:09:08;;;;;;;1.70;1.52;;;;;;;;;;10460332;28;20049;-74
2024/02/11 00:14:12;;;;;;;2.30;1.70;;;;;;;;;;10470586;28;20049;-75
2024/02/11 00:19:32;;;;;;;3.05;1.90;;;;;;;;;;10473003;28;20044;-75
2024/02/11 00:24:42;;;;;;;4.72;2.33;;;;;;;;;;10464030;28;20527;-75
2024/02/11 00:30:37;;;;;;;2.83;1.88;;;;;;;;;;10470523;28;20037;-75
2024/02/11 00:36:09;;;;;;;;;;;;;;;;;;;;;
2024/02/11 00:42:27;;;;;;;;;;;;;;;;;;;;;
2024/02/11 00:55:45;;;;;;;;;;;;;;;;;;;;;
2024/02/11 01:21:00;;;;;;;;;;;;;;;;;;;;;
2024/02/11 01:59:41;;;;;;;;;;;;;;;;;;;;;
2024/02/11 02:11:30;;;;;;;3.63;2.92;;;;;;;;;;10265622;28;20052;-75
2024/02/11 02:17:14;;;;;;;4.95;3.33;;;;;;;;;;10379860;28;20122;-75
2024/02/11 02:22:41;;;;;;;4.55;3.45;;;;;;;;;;10396031;28;20038;-75
2024/02/11 02:27:57;;;;;;;7.05;3.38;;;;;;;;;;10440375;28;20044;-74
2024/02/11 02:38:44;;;;;;;4.20;3.35;;;;;;;;;;10462478;28;20043;-75
2024/02/11 02:43:55;;;;;;;5.47;3.37;;;;;;;;;;10454501;28;20044;-75
2024/02/11 02:49:10;;;;;;;5.93;3.45;;;;;;;;;;10434261;28;20143;-74
2024/02/11 02:54:28;;;;;;;5.00;3.60;;;;;;;;;;10421064;28;20787;-75
2024/02/11 02:59:36;;;;;;;5.47;2.93;;;;;;;;;;10438725;28;20147;-75
2024/02/11 03:04:51;;;;;;;3.40;2.47;;;;;;;;;;10465081;28;20056;-75
2024/02/11 03:10:07;;;;;;;3.67;2.80;;;;;;;;;;10466756;28;20036;-75
2024/02/11 03:15:39;;;;;;;6.53;2.80;;;;;;;;;;10484341;28;20090;-75
2024/02/11 03:21:00;;;;;;;2.53;2.00;;;;;;;;;;10471103;22;20049;-75
2024/02/11 03:26:10;;;;;;;3.17;2.00;;;;;;;;;;10482040;28;20475;-75
2024/02/11 03:31:16;;;;;;;1.70;1.60;;;;;;;;;;10423631;28;20048;-74
2024/02/11 03:36:21;;;;;;;1.80;1.40;;;;;;;;;;10433658;28;20118;-75
2024/02/11 03:41:35;;;;;;;1.30;1.20;;;;;;;;;;10434277;28;20468;-75
2024/02/11 03:46:38;;;;;;;2.33;1.95;;;;;;;;;;10433570;28;20503;-75
2024/02/11 03:51:42;;;;;;;2.22;1.50;;;;;;;;;;10432968;28;20472;-75
2024/02/11 03:56:47;;;;;;;2.22;1.75;;;;;;;;;;10429067;28;20041;-75
2024/02/11 04:01:50;;;;;;;1.20;0.90;;;;;;;;;;10387673;28;20047;-75
2024/02/11 04:06:54;;;;;;;0.85;0.77;;;;;;;;;;10424916;28;20117;-74
2024/02/11 04:12:01;;;;;;;0.63;0.57;;;;;;;;;;10414273;28;20049;-75
2024/02/11 04:17:12;;;;;;;0.80;0.80;;;;;;;;;;10427570;28;20041;-75
2024/02/11 04:22:16;;;;;;;0.80;0.80;;;;;;;;;;10419434;28;20060;-75
2024/02/11 04:27:23;;;;;;;1.20;0.70;;;;;;;;;;10427401;28;20045;-75
2024/02/11 04:32:28;;;;;;;0.63;0.60;;;;;;;;;;10434563;28;20502;-75
2024/02/11 04:37:31;;;;;;;0.68;0.65;;;;;;;;;;10424229;28;20463;-75
2024/02/11 04:42:42;;;;;;;0.68;0.68;;;;;;;;;;10437660;28;20049;-75
2024/02/11 04:47:47;;;;;;;1.02;0.60;;;;;;;;;;10439669;28;20037;-75
2024/02/11 04:52:56;;;;;;;0.73;0.50;;;;;;;;;;10440727;28;20049;-75
2024/02/11 04:58:04;;;;;;;0.40;0.40;;;;;;;;;;10437431;28;20114;-75
2024/02/11 05:03:17;;;;;;;0.40;0.40;;;;;;;;;;10436198;28;20049;-75
2024/02/11 05:08:24;;;;;;;0.30;0.30;;;;;;;;;;10433317;28;20033;-75
2024/02/11 05:13:32;;;;;;;0.20;0.20;;;;;;;;;;10477139;22;20132;-76
2024/02/11 05:18:38;;;;;;;0.30;0.30;;;;;;;;;;10455490;28;20060;-74
2024/02/11 05:23:47;;;;;;;;;;;;;;;;;;10483436;28;20048;-73
2024/02/11 05:28:51;;;;;;;0.43;0.43;;;;;;;;;;10475136;28;19925;-74
2024/02/11 05:33:55;;;;;;;1.45;0.63;;;;;;;;;;10480295;28;20130;-74
2024/02/11 05:38:59;;;;;;;0.80;0.80;;;;;;;;;;10480885;28;20067;-74
2024/02/11 05:44:03;;;;;;;3.08;1.35;;;;;;;;;;10474101;28;20040;-74
2024/02/11 05:49:08;;;;;;;2.28;0.90;;;;;;;;;;10475489;28;20049;-74
2024/02/11 05:54:11;;;;;;;1.00;0.90;;;;;;;;;;10481238;28;20056;-74
2024/02/11 05:59:17;;;;;;;2.28;1.38;;;;;;;;;;10485653;28;20070;-74
2024/02/11 06:04:20;;;;;;;2.10;1.67;;;;;;;;;;10479833;28;20045;-74
2024/02/11 06:09:24;;;;;;;2.60;1.90;;;;;;;;;;10463435;28;20287;-74
2024/02/11 06:14:29;;;;;;;2.45;1.85;;;;;;;;;;10480227;28;20072;-74
2024/02/11 06:19:33;;;;;;;3.28;2.30;;;;;;;;;;10472572;28;20128;-73
2024/02/11 06:24:37;;;;;;;3.90;2.75;;;;;;;;;;10481747;28;20048;-74
2024/02/11 06:29:42;;;;;;;3.33;2.28;;;;;;;;;;10476959;28;20044;-75
2024/02/11 06:34:45;;;;;;;3.10;2.03;;;;;;;;;;10475036;28;20048;-74
2024/02/11 06:39:49;;;;;;;4.13;2.38;;;;;;;;;;10479090;28;20094;-73
2024/02/11 06:44:56;;;;;;;3.90;2.70;;;;;;;;;;10482072;28;20101;-74
2024/02/11 06:49:59;;;;;;;5.60;3.00;;;;;;;;;;10476195;28;20083;-73
2024/02/11 06:55:05;;;;;;;3.42;2.10;;;;;;;;;;10471476;28;20076;-74
2024/02/11 07:00:11;;;;;;;2.30;1.90;;;;;;;;;;10475930;28;20144;-74
2024/02/11 07:05:15;;;;;;;3.28;2.20;;;;;;;;;;10475217;28;20040;-74
2024/02/11 07:10:19;;;;;;;5.05;2.47;;;;;;;;;;10479047;28;20040;-74
2024/02/11 07:15:25;;;;;;;2.85;1.70;;;;;;;;;;10477442;28;20471;-74
2024/02/11 07:20:28;;;;;;;2.42;2.20;;;;;;;;;;10472354;28;20106;-74
2024/02/11 07:25:31;;;;;;;5.78;3.78;;;;;;;;;;10470402;28;20037;-74
2024/02/11 07:30:36;;;;;;;5.93;3.25;;;;;;;;;;10460076;28;20045;-74
2024/02/11 07:35:39;;;;;;;6.38;2.88;;;;;;;;;;10480299;28;20515;-74
2024/02/11 07:40:42;;;;;;;4.38;2.50;;;;;;;;;;10468058;28;20097;-74
2024/02/11 07:45:47;;;;;;;8.23;4.00;;;;;;;;;;10479333;28;20090;-74
2024/02/11 07:50:50;;;;;;;5.82;3.60;;;;;;;;;;10477407;28;20049;-74
2024/02/11 07:55:54;;;;;;;3.97;2.80;;;;;;;;;;10476025;28;20036;-74
2024/02/11 08:00:59;;;;;;;3.47;2.20;;;;;;;;;;10478915;28;20048;-74
2024/02/11 08:06:03;;;;;;;2.75;2.33;;;;;;;;;;10481974;28;20056;-74
2024/02/11 08:11:06;;;;;;;4.20;1.98;;;;;;;;;;10483442;28;20067;-74
2024/02/11 08:16:11;;;;;;;2.42;2.22;;;;;;;;;;10477012;28;20489;-74
2024/02/11 08:21:14;;;;;;;5.50;3.33;;;;;;;;;;10483108;28;20407;-74
2024/02/11 08:26:20;;;;;;;5.82;3.17;;;;;;;;;;10489676;28;20048;-74
2024/02/11 08:31:24;;;;;;;3.75;2.63;;;;;;;;;;10463751;28;20036;-74
2024/02/11 08:36:28;;;;;;;5.05;3.50;;;;;;;;;;10482204;28;20052;-74
2024/02/11 08:41:33;;;;;;;7.75;3.90;;;;;;;;;;10476014;28;20097;-74
2024/02/11 08:46:38;;;;;;;9.05;4.47;;;;;;;;;;10477859;28;20036;-74
2024/02/11 08:51:42;;;;;;;4.90;2.97;;;;;;;;;;10462074;28;20119;-74
2024/02/11 08:56:47;;;;;;;4.47;2.88;;;;;;;;;;10481986;28;20505;-74
2024/02/11 09:01:52;;;;;;;5.00;3.10;;;;;;;;;;10481225;28;20051;-74
2024/02/11 09:06:56;;;;;;;5.23;3.40;;;;;;;;;;10475064;28;20515;-74
2024/02/11 09:12:00;;;;;;;4.95;3.00;;;;;;;;;;10454524;28;20472;-74
2024/02/11 09:17:07;;;;;;;5.22;3.13;;;;;;;;;;10464695;28;20139;-74
2024/02/11 09:22:10;;;;;;;4.03;2.00;;;;;;;;;;10474811;28;20055;-74
2024/02/11 09:27:14;;;;;;;5.20;3.20;;;;;;;;;;10483624;28;20043;-74
2024/02/11 09:32:18;;;;;;;4.50;2.70;;;;;;;;;;10477485;28;20506;-74
2024/02/11 09:37:22;;;;;;;3.47;2.42;;;;;;;;;;10478222;28;20072;-74
2024/02/11 09:42:26;;;;;;;3.40;2.15;;;;;;;;;;10472947;28;20037;-74
2024/02/11 09:47:32;;;;;;;3.03;2.10;;;;;;;;;;10460243;28;20048;-74
2024/02/11 09:52:35;;;;;;;5.38;3.15;;;;;;;;;;10478872;28;20052;-74
2024/02/11 09:57:39;;;;;;;2.35;1.77;;;;;;;;;;10478064;28;20524;-74
2024/02/11 10:02:45;;;;;;;2.35;2.13;;;;;;;;;;10480721;28;20162;-74
2024/02/11 10:07:52;;;;;;;1.63;1.52;;;;;;;;;;10480066;28;20044;-74
2024/02/11 10:12:59;;;;;;;3.67;1.42;;;;;;;;;;10478846;28;20466;-74
2024/02/11 10:18:06;;;;;;;4.03;1.60;;;;;;;;;;10478045;28;20151;-74
2024/02/11 10:23:11;;;;;;;2.10;1.30;;;;;;;;;;10481914;28;20540;-74
2024/02/11 10:28:14;;;;;;;1.50;1.20;;;;;;;;;;10478326;28;20056;-74
2024/02/11 10:33:19;;;;;;;1.05;0.95;;;;;;;;;;10477136;28;20044;-74
2024/02/11 10:38:22;;;;;;;1.20;1.10;;;;;;;;;;10475014;28;20503;-74
2024/02/11 10:43:26;;;;;;;1.67;1.00;;;;;;;;;;10477820;28;20052;-74
2024/02/11 10:48:32;;;;;;;1.45;1.23;;;;;;;;;;10479915;28;20033;-74
2024/02/11 10:53:37;;;;;;;2.35;1.48;;;;;;;;;;10468409;28;20668;-74
2024/02/11 10:58:45;;;;;;;2.55;1.13;;;;;;;;;;10460017;28;20047;-74
2024/02/11 11:03:51;;;;;;;1.35;1.25;;;;;;;;;;10479734;28;20050;-74
2024/02/11 11:08:55;;;;;;;4.53;1.73;;;;;;;;;;10477711;28;20042;-74
2024/02/11 11:14:07;;;;;;;2.80;1.45;;;;;;;;;;10476122;22;20375;-74
2024/02/11 11:19:13;;;;;;;1.10;0.90;;;;;;;;;;10458722;28;20056;-75
2024/02/11 11:24:19;;;;;;;4.43;1.75;;;;;;;;;;10434249;28;20429;-74
2024/02/11 11:29:27;;;;;;;3.00;1.33;;;;;;;;;;10436692;28;20037;-75
2024/02/11 11:34:34;;;;;;;2.38;1.30;;;;;;;;;;10436121;28;20041;-75
2024/02/11 11:39:37;;;;;;;4.20;1.63;;;;;;;;;;10438224;28;20082;-74
2024/02/11 11:44:41;;;;;;;2.30;1.10;;;;;;;;;;10438703;28;20487;-75
2024/02/11 11:49:46;;;;;;;3.42;1.20;;;;;;;;;;10428099;28;20044;-75
2024/02/11 11:54:50;;;;;;;3.50;1.13;;;;;;;;;;10441990;28;20053;-74
2024/02/11 11:59:57;;;;;;;3.22;1.45;;;;;;;;;;10435668;28;20044;-74
2024/02/11 12:05:02;;;;;;;3.63;1.50;;;;;;;;;;10440343;28;20041;-75
2024/02/11 12:10:06;;;;;;;1.58;1.00;;;;;;;;;;10438545;28;20770;-74
2024/02/11 12:15:10;;;;;;;2.38;0.98;;;;;;;;;;10438304;28;20526;-74
2024/02/11 12:20:16;;;;;;;2.17;1.10;;;;;;;;;;10434385;28;20053;-74
2024/02/11 12:25:20;;;;;;;2.27;1.07;;;;;;;;;;10438474;28;20069;-74
2024/02/11 12:30:24;;;;;;;3.85;1.33;;;;;;;;;;10437517;28;20041;-74
2024/02/11 12:35:34;;;;;;;2.15;1.20;;;;;;;;;;10437403;28;20045;-74
2024/02/11 12:40:38;;;;;;;2.42;1.27;;;;;;;;;;10436305;28;20051;-74
2024/02/11 12:45:43;;;;;;;2.47;0.95;;;;;;;;;;10438437;28;20537;-74
2024/02/11 12:50:47;;;;;;;1.95;0.98;;;;;;;;;;10428324;28;20063;-75
2024/02/11 12:55:53;;;;;;;1.58;0.75;;;;;;;;;;10446154;28;20045;-74
2024/02/11 13:00:58;;;;;;;1.83;0.90;;;;;;;;;;10446986;28;20092;-74
2024/02/11 13:06:03;;;;;;;3.92;1.50;;;;;;;;;;10444997;28;20136;-74
2024/02/11 13:11:06;;;;;;;5.78;2.95;;;;;;;;;;10443761;28;20045;-74
2024/02/11 13:16:12;;;;;;;5.85;2.90;;;;;;;;;;10445767;28;20049;-74
2024/02/11 13:21:17;;;;;;;2.83;1.17;;;;;;;;;;10445624;28;20115;-74
2024/02/11 13:26:21;;;;;;;1.42;0.90;;;;;;;;;;10437750;28;20057;-74
2024/02/11 13:31:25;;;;;;;1.48;0.73;;;;;;;;;;10420899;28;20052;-74
2024/02/11 13:36:31;;;;;;;1.48;1.05;;;;;;;;;;10452204;28;20044;-74
2024/02/11 13:41:34;;;;;;;1.88;0.80;;;;;;;;;;10447745;28;20037;-74
2024/02/11 13:46:38;;;;;;;1.65;0.90;;;;;;;;;;10442247;28;20040;-74
2024/02/11 13:51:42;;;;;;;3.53;0.73;;;;;;;;;;10444944;28;20048;-74
2024/02/11 13:56:46;;;;;;;1.73;0.60;;;;;;;;;;10439736;28;20071;-74
2024/02/11 14:01:50;;;;;;;1.38;0.63;;;;;;;;;;10444607;28;20037;-74
2024/02/11 14:06:56;;;;;;;1.63;0.75;;;;;;;;;;10441634;28;20041;-74
2024/02/11 14:12:00;;;;;;;0.57;0.57;;;;;;;;;;10445847;28;20037;-74
2024/02/11 14:17:04;;;;;;;1.80;0.65;;;;;;;;;;10444559;28;20388;-74
2024/02/11 14:22:09;;;;;;;1.52;0.80;;;;;;;;;;10438409;28;20060;-74
2024/02/11 14:27:13;;;;;;;1.25;0.60;;;;;;;;;;10431776;28;20049;-74
2024/02/11 14:32:16;;;;;;;1.63;0.70;;;;;;;;;;10441859;28;20049;-74
2024/02/11 14:37:23;;;;;;;1.52;0.90;;;;;;;;;;10423458;28;20052;-74
2024/02/11 14:42:27;;;;;;;2.50;1.42;;;;;;;;;;10434047;28;20753;-74
2024/02/11 14:47:31;;;;;;;2.20;1.00;;;;;;;;;;10432756;28;20052;-74
2024/02/11 14:52:36;;;;;;;3.13;1.38;;;;;;;;;;10437956;28;20061;-74
2024/02/11 15:04:32;;;;;;;1.75;0.80;;;;;;;;;;10353893;28;20539;-74
2024/02/11 15:09:38;;;;;;;1.23;0.80;;;;;;;;;;10465690;22;20054;-82
2024/02/11 15:14:42;;;;;;;1.90;1.17;;;;;;;;;;10470702;28;20093;-81
2024/02/11 15:19:47;;;;;;;4.13;1.37;;;;;;;;;;10449508;28;20044;-82
2024/02/11 15:24:52;;;;;;;2.40;0.85;;;;;;;;;;10459001;28;20071;-82
2024/02/11 15:29:56;;;;;;;1.95;0.68;;;;;;;;;;10452478;28;20044;-82
2024/02/11 15:34:59;;;;;;;2.28;0.47;;;;;;;;;;10448756;28;20053;-81
2024/02/11 15:40:07;;;;;;;1.70;0.65;;;;;;;;;;10447069;28;20048;-82
2024/02/11 15:45:11;;;;;;;0.68;0.68;;;;;;;;;;10461785;28;20423;-82
2024/02/11 15:50:16;;;;;;;4.72;2.80;;;;;;;;;;10469826;28;20041;-82
2024/02/11 15:55:23;;;;;;;5.70;3.22;;;;;;;;;;10454876;28;20040;-82
2024/02/11 16:00:26;;;;;;;2.28;1.35;;;;;;;;;;10451256;28;20041;-83
2024/02/11 16:05:30;;;;;;;2.22;0.88;;;;;;;;;;10457407;28;20052;-82
2024/02/11 16:10:35;;;;;;;1.35;0.70;;;;;;;;;;10458030;28;20057;-84
2024/02/11 16:15:38;;;;;;;1.98;0.70;;;;;;;;;;10451023;28;20048;-84
2024/02/11 16:20:44;;;;;;;1.00;0.70;;;;;;;;;;10456469;28;20708;-84
2024/02/11 16:25:49;;;;;;;1.45;1.00;;;;;;;;;;10454795;28;20079;-84
2024/02/11 16:30:52;;;;;;;2.45;1.20;;;;;;;;;;10464218;28;20063;-83
2024/02/11 16:35:56;;;;;;;2.28;0.98;;;;;;;;;;10479214;28;20090;-84
2024/02/11 16:41:01;;;;;;;2.45;0.88;;;;;;;;;;10474982;28;20551;-83
2024/02/11 16:46:04;;;;;;;1.33;0.65;;;;;;;;;;10456100;28;20078;-84
2024/02/11 16:51:08;;;;;;;0.63;0.55;;;;;;;;;;10456435;28;20124;-84
2024/02/11 16:56:14;;;;;;;1.75;1.10;;;;;;;;;;10474005;28;20045;-83
2024/02/11 17:01:17;;;;;;;1.30;0.80;;;;;;;;;;10467988;28;20053;-83
2024/02/11 17:06:21;;;;;;;1.48;0.90;;;;;;;;;;10466879;28;20063;-82
2024/02/11 17:11:26;;;;;;;0.43;0.43;;;;;;;;;;10457201;28;20041;-82
2024/02/11 17:16:30;;;;;;;0.80;0.38;;;;;;;;;;10478633;28;20514;-82
2024/02/11 17:21:33;;;;;;;0.40;0.40;;;;;;;;;;10471031;28;20041;-83
2024/02/11 17:26:38;;;;;;;0.30;0.30;;;;;;;;;;10459830;28;20056;-82
2024/02/11 17:31:42;;;;;;;0.43;0.40;;;;;;;;;;10476019;28;20036;-82
2024/02/11 17:36:46;;;;;;;0.63;0.47;;;;;;;;;;10455517;28;20044;-82
2024/02/11 17:41:54;;;;;;;0.77;0.30;;;;;;;;;;10453370;28;20056;-82
2024/02/11 17:46:57;;;;;;;;;;;;;;;;;;10475317;28;20060;-82
2024/02/11 17:52:02;;;;;;;0.35;0.30;;;;;;;;;;10455980;28;19924;-82
2024/02/11 17:57:07;;;;;;;0.38;0.38;;;;;;;;;;10449888;28;20045;-82
2024/02/11 18:02:10;;;;;;;1.25;0.57;;;;;;;;;;10469651;28;20545;-82
2024/02/11 18:07:14;;;;;;;0.65;0.40;;;;;;;;;;10462696;28;20555;-80
2024/02/11 18:12:19;;;;;;;0.50;0.40;;;;;;;;;;10479407;28;20037;-81
2024/02/11 18:17:22;;;;;;;0.82;0.40;;;;;;;;;;10462522;28;20468;-82
2024/02/11 18:22:29;;;;;;;0.38;0.38;;;;;;;;;;10478149;28;20080;-81
2024/02/11 18:27:34;;;;;;;0.47;0.40;;;;;;;;;;10477190;28;20098;-82
2024/02/11 18:32:39;;;;;;;1.70;0.70;;;;;;;;;;10474863;28;20032;-82
2024/02/11 18:37:42;;;;;;;0.75;0.60;;;;;;;;;;10478154;28;20044;-82
2024/02/11 18:42:47;;;;;;;1.20;0.43;;;;;;;;;;10471779;28;20584;-82
2024/02/11 18:47:50;;;;;;;1.10;0.60;;;;;;;;;;10454711;28;20449;-82
2024/02/11 18:52:54;;;;;;;0.47;0.40;;;;;;;;;;10452827;28;20401;-82
2024/02/11 18:58:00;;;;;;;1.38;1.13;;;;;;;;;;10443892;28;20114;-82
2024/02/11 19:03:04;;;;;;;1.13;0.55;;;;;;;;;;10452778;28;20546;-83
2024/02/11 19:08:10;;;;;;;0.45;0.40;;;;;;;;;;10449981;28;20044;-82
2024/02/11 19:13:15;;;;;;;0.77;0.57;;;;;;;;;;10454367;28;20075;-82
2024/02/11 19:18:18;;;;;;;0.52;0.50;;;;;;;;;;10476424;28;20119;-83
2024/02/11 19:23:22;;;;;;;1.60;0.40;;;;;;;;;;10454219;28;20045;-83
2024/02/11 19:28:29;;;;;;;0.32;0.20;;;;;;;;;;10470063;28;20409;-83
2024/02/11 19:33:33;;;;;;;0.65;0.50;;;;;;;;;;10479198;28;20048;-81
2024/02/11 19:38:44;;;;;;;2.22;1.02;;;;;;;;;;10459008;28;20098;-81
2024/02/11 19:43:52;;;;;;;1.88;1.05;;;;;;;;;;10449374;28;20074;-83
2024/02/11 19:48:55;;;;;;;2.72;0.93;;;;;;;;;;10456503;28;20692;-83
2024/02/11 19:53:59;;;;;;;1.70;0.80;;;;;;;;;;10450970;28;20237;-83
2024/02/11 19:59:05;;;;;;;0.65;0.60;;;;;;;;;;10452903;28;21454;-83
2024/02/11 20:04:11;;;;;;;0.45;0.40;;;;;;;;;;10485090;28;20495;-83
2024/02/11 20:09:17;;;;;;;0.70;0.50;;;;;;;;;;10482940;28;20120;-83
2024/02/11 20:14:21;;;;;;;0.88;0.50;;;;;;;;;;10462327;28;20048;-82
2024/02/11 20:19:26;;;;;;;1.45;0.90;;;;;;;;;;10456258;28;20108;-82
2024/02/11 20:24:29;;;;;;;0.85;0.50;;;;;;;;;;10475401;28;20052;-82
2024/02/11 20:29:34;;;;;;;1.45;0.50;;;;;;;;;;10480255;28;20106;-82
2024/02/11 20:34:39;;;;;;;1.42;0.60;;;;;;;;;;10479543;28;20780;-81
2024/02/11 20:39:42;;;;;;;1.75;0.68;;;;;;;;;;10459582;28;20068;-81
2024/02/11 20:44:46;;;;;;;1.02;0.57;;;;;;;;;;10471552;28;20091;-82
2024/02/11 20:49:50;;;;;;;1.27;0.60;;;;;;;;;;10455131;28;20087;-81
2024/02/11 20:54:54;;;;;;;1.13;0.55;;;;;;;;;;10469199;28;20048;-81
2024/02/11 20:59:59;;;;;;;0.90;0.60;;;;;;;;;;10462681;28;20537;-81
2024/02/11 21:05:04;;;;;;;0.50;0.47;;;;;;;;;;10477145;28;20051;-82
2024/02/11 21:10:09;;;;;;;0.40;0.40;;;;;;;;;;10490872;28;20063;-81
2024/02/11 21:15:18;;;;;;;0.90;0.60;;;;;;;;;;10395411;28;20048;-82
2024/02/11 21:20:25;;;;;;;0.63;0.60;;;;;;;;;;10503535;28;20032;-81
2024/02/11 21:25:29;;;;;;;1.58;0.90;;;;;;;;;;10504822;28;20623;-81
2024/02/11 21:30:36;;;;;;;3.17;1.10;;;;;;;;;;10501531;28;20040;-82
2024/02/11 21:35:39;;;;;;;1.42;1.13;;;;;;;;;;10487166;28;20040;-82
2024/02/11 21:40:43;;;;;;;2.03;1.20;;;;;;;;;;10493865;28;20070;-82
2024/02/11 21:45:47;;;;;;;1.17;0.93;;;;;;;;;;10484176;28;20052;-82
2024/02/11 21:50:58;;;;;;;3.10;1.42;;;;;;;;;;10471872;28;20044;-82
2024/02/11 21:56:01;;;;;;;1.55;0.98;;;;;;;;;;10477824;28;20075;-82
2024/02/11 22:01:10;;;;;;;1.92;1.35;;;;;;;;;;10471886;28;20048;-82
2024/02/11 22:06:24;;;;;;;3.95;1.40;;;;;;;;;;10485607;28;20052;-82
2024/02/11 22:11:28;;;;;;;1.80;1.10;;;;;;;;;;10475433;28;20050;-81
2024/02/11 22:16:33;;;;;;;1.83;1.02;;;;;;;;;;10473518;28;20052;-82
2024/02/11 22:21:37;;;;;;;1.92;1.05;;;;;;;;;;10487525;28;20042;-82
2024/02/11 22:26:49;;;;;;;1.58;1.05;;;;;;;;;;10485835;28;20086;-82
2024/02/11 22:31:56;;;;;;;2.10;1.25;;;;;;;;;;10471026;28;20094;-81
2024/02/11 22:36:59;;;;;;;;;;;;;;;;;;10486561;28;20044;-81
2024/02/11 22:42:03;;;;;;;1.02;0.73;;;;;;;;;;10482737;28;19947;-82
2024/02/11 22:47:07;;;;;;;0.73;0.50;;;;;;;;;;10482231;28;20052;-83
2024/02/11 22:52:11;;;;;;;1.23;0.60;;;;;;;;;;10490892;28;20273;-82
2024/02/11 22:57:14;;;;;;;0.85;0.50;;;;;;;;;;10477763;28;20044;-82
2024/02/11 23:02:20;;;;;;;0.88;0.68;;;;;;;;;;10485433;28;20037;-83
2024/02/11 23:07:27;;;;;;;0.60;0.60;;;;;;;;;;10472488;28;20029;-82
2024/02/11 23:12:31;;;;;;;0.47;0.45;;;;;;;;;;10488337;28;20075;-82
2024/02/11 23:17:37;;;;;;;1.63;0.60;;;;;;;;;;10489392;28;20033;-82
2024/02/11 23:22:40;;;;;;;0.45;0.40;;;;;;;;;;10480137;28;20537;-82
2024/02/11 23:27:44;;;;;;;0.38;0.35;;;;;;;;;;10485852;28;20234;-82
2024/02/11 23:32:48;;;;;;;0.60;0.40;;;;;;;;;;10488550;28;20098;-81
2024/02/11 23:37:55;;;;;;;0.93;0.68;;;;;;;;;;10451499;28;20047;-82
2024/02/11 23:42:58;;;;;;;0.60;0.40;;;;;;;;;;10468119;28;20033;-81
2024/02/11 23:48:06;;;;;;;0.35;0.35;;;;;;;;;;10455400;28;20132;-83
2024/02/11 23:53:12;;;;;;;0.85;0.40;;;;;;;;;;10469881;28;20048;-82
2024/02/11 23:58:16;;;;;;;0.50;0.40;;;;;;;;;;10451204;28;20825;-82
